createdAt,value
2022-12-14T00:01:48.969Z,99972.69
2022-12-14T00:04:18.949Z,99971.00
2022-12-14T00:06:48.827Z,99969.50
2022-12-14T00:09:15.555Z,99972.31
2022-12-14T00:11:42.311Z,99973.25
2022-12-14T00:14:09.101Z,99970.03
2022-12-14T00:16:36.483Z,99978.56
2022-12-14T00:19:05.712Z,99973.19
2022-12-14T00:21:32.570Z,99970.78
2022-12-14T00:24:00.509Z,99971.72
2022-12-14T00:26:32.301Z,99975.09
2022-12-14T00:29:02.231Z,99968.00
2022-12-14T00:31:31.391Z,99967.94
2022-12-14T00:33:58.306Z,99966.22
2022-12-14T00:36:25.150Z,99977.13
2022-12-14T00:38:51.924Z,99980.34
2022-12-14T00:41:20.489Z,99978.72
2022-12-14T00:43:49.311Z,99969.50
2022-12-14T00:46:18.110Z,99960.00
2022-12-14T00:48:45.436Z,99956.47
2022-12-14T00:51:14.820Z,99952.66
2022-12-14T00:53:45.251Z,99947.31
2022-12-14T00:56:12.531Z,99942.84
2022-12-14T00:58:39.459Z,99938.28
2022-12-14T01:01:13.439Z,99938.06
2022-12-14T01:03:40.490Z,99940.91
2022-12-14T01:06:23.988Z,99934.91
2022-12-14T01:08:50.684Z,99931.50
2022-12-14T01:11:17.975Z,99941.09
2022-12-14T01:13:49.475Z,99933.22
2022-12-14T01:16:17.271Z,99935.66
2022-12-14T01:18:44.822Z,99933.09
2022-12-14T01:21:20.320Z,99924.28
2022-12-14T01:23:58.197Z,99910.44
2022-12-14T01:26:28.356Z,99911.03
2022-12-14T01:28:59.287Z,99917.97
2022-12-14T01:31:35.314Z,99916.91
2022-12-14T01:34:03.129Z,99911.03
2022-12-14T01:36:36.911Z,99905.13
2022-12-14T01:39:15.094Z,99904.25
2022-12-14T01:41:53.012Z,99911.13
2022-12-14T01:44:22.378Z,99912.59
2022-12-14T01:47:07.409Z,99915.28
2022-12-14T01:49:57.207Z,99913.31
2022-12-14T01:52:43.928Z,99912.09
2022-12-14T01:55:33.724Z,99913.94
2022-12-14T01:58:23.359Z,99910.81
2022-12-14T02:00:57.008Z,99900.59
2022-12-14T02:03:45.573Z,99909.09
2022-12-14T02:06:30.795Z,99917.06
2022-12-14T02:08:58.285Z,99911.81
2022-12-14T02:12:03.158Z,99911.13
2022-12-14T02:14:30.588Z,99913.13
2022-12-14T02:16:58.088Z,99907.38
2022-12-14T02:19:27.919Z,99896.13
2022-12-14T02:22:36.931Z,99903.09
2022-12-14T02:26:18.738Z,99901.00
2022-12-14T02:29:42.105Z,99895.72
2022-12-14T02:33:10.016Z,99894.16
2022-12-14T02:35:55.426Z,99890.88
2022-12-14T02:38:30.957Z,99892.56
2022-12-14T02:41:17.947Z,99888.47
2022-12-14T02:44:14.825Z,99885.00
2022-12-14T02:47:12.044Z,99886.81
2022-12-14T02:50:10.145Z,99883.91
2022-12-14T02:53:23.348Z,99880.53
2022-12-14T02:56:06.883Z,99868.16
2022-12-14T02:58:42.181Z,99855.25
2022-12-14T03:01:17.684Z,99858.00
2022-12-14T03:03:45.931Z,99861.44
2022-12-14T03:06:27.846Z,99855.25
2022-12-14T03:09:17.924Z,99851.97
2022-12-14T03:11:57.371Z,99849.28
2022-12-14T03:14:36.815Z,99849.50
2022-12-14T03:17:27.716Z,99843.59
2022-12-14T03:20:06.772Z,99845.34
2022-12-14T03:23:03.212Z,99840.19
2022-12-14T03:26:15.427Z,99852.22
2022-12-14T03:28:56.340Z,99839.41
2022-12-14T03:31:41.677Z,99848.16
2022-12-14T03:34:16.774Z,99845.34
2022-12-14T03:37:26.498Z,99844.56
2022-12-14T03:39:53.425Z,99841.34
2022-12-14T03:43:00.990Z,99845.84
2022-12-14T03:45:43.498Z,99833.75
2022-12-14T03:48:52.400Z,99830.16
2022-12-14T03:51:37.969Z,99825.75
2022-12-14T03:54:16.043Z,99831.00
2022-12-14T03:57:02.093Z,99836.88
2022-12-14T03:59:49.077Z,99828.81
2022-12-14T04:02:49.881Z,99833.97
2022-12-14T04:05:35.568Z,99825.50
2022-12-14T04:08:22.731Z,99821.69
2022-12-14T04:11:14.024Z,99818.13
2022-12-14T04:14:25.095Z,99815.44
2022-12-14T04:17:19.247Z,99803.44
2022-12-14T04:20:00.405Z,99790.59
2022-12-14T04:22:40.796Z,99793.22
2022-12-14T04:25:51.942Z,99778.88
2022-12-14T04:28:50.129Z,99791.09
2022-12-14T04:31:25.797Z,99781.28
2022-12-14T04:34:04.411Z,99780.03
2022-12-14T04:36:51.704Z,99773.91
2022-12-14T04:39:37.224Z,99797.13
2022-12-14T04:42:08.539Z,99799.97
2022-12-14T04:44:51.985Z,99799.75
2022-12-14T04:47:36.487Z,99793.81
2022-12-14T04:50:35.184Z,99795.06
2022-12-14T04:53:17.735Z,99792.16
2022-12-14T04:56:05.263Z,99777.00
2022-12-14T04:58:34.163Z,99774.28
2022-12-14T05:01:34.730Z,99781.41
2022-12-14T05:04:55.233Z,99783.25
2022-12-14T05:08:17.796Z,99789.47
2022-12-14T05:11:41.317Z,99786.38
2022-12-14T05:14:07.339Z,99786.00
2022-12-14T05:16:37.451Z,99771.31
2022-12-14T05:19:11.022Z,99779.19
2022-12-14T05:21:49.661Z,99770.38
2022-12-14T05:24:18.051Z,99763.50
2022-12-14T05:26:48.349Z,99759.91
2022-12-14T05:29:15.324Z,99760.69
2022-12-14T05:31:42.116Z,99751.88
2022-12-14T05:34:19.040Z,99752.78
2022-12-14T05:36:54.725Z,99748.38
2022-12-14T05:39:24.070Z,99735.91
2022-12-14T05:41:51.057Z,99733.75
2022-12-14T05:44:17.891Z,99738.88
2022-12-14T05:46:44.696Z,99729.72
2022-12-14T05:49:11.990Z,99736.88
2022-12-14T05:51:38.921Z,99732.31
2022-12-14T05:54:05.693Z,99732.72
2022-12-14T07:09:25.303Z,99706.69
2022-12-14T08:05:50.333Z,99692.81
2022-12-14T08:48:43.359Z,99702.69
2022-12-14T08:51:11.119Z,99692.78
2022-12-14T08:53:39.107Z,99687.41
2022-12-14T08:56:12.684Z,99693.06
2022-12-14T08:58:41.554Z,99683.41
2022-12-14T09:01:30.239Z,99683.09
2022-12-14T09:04:07.650Z,99680.56
2022-12-14T09:06:39.328Z,99682.66
2022-12-14T09:09:15.755Z,99686.31
2022-12-14T09:11:45.105Z,99683.97
2022-12-14T09:14:12.142Z,99683.69
2022-12-14T09:16:40.209Z,99680.44
2022-12-14T09:19:07.196Z,99683.84
2022-12-14T09:21:34.721Z,99689.31
2022-12-14T09:24:01.636Z,99697.22
2022-12-14T09:26:31.139Z,99691.47
2022-12-14T09:28:58.241Z,99685.75
2022-12-14T09:31:27.856Z,99686.41
2022-12-14T09:33:56.699Z,99679.38
2022-12-14T09:36:28.679Z,99685.78
2022-12-14T09:38:57.629Z,99684.94
2022-12-14T09:41:36.384Z,99688.06
2022-12-14T09:44:28.049Z,99684.56
2022-12-14T09:47:09.577Z,99684.50
2022-12-14T09:49:58.269Z,99686.28
2022-12-14T09:52:56.991Z,99674.31
2022-12-14T09:55:38.838Z,99673.34
2022-12-14T09:58:27.660Z,99672.34
2022-12-14T10:01:22.552Z,99665.59
2022-12-14T10:04:11.904Z,99660.56
2022-12-14T10:07:24.079Z,99657.47
2022-12-14T10:10:35.923Z,99648.06
2022-12-14T10:13:27.083Z,99650.03
2022-12-14T10:16:34.735Z,99642.59
2022-12-14T10:19:29.354Z,99635.47
2022-12-14T10:22:06.779Z,99642.53
2022-12-14T10:25:11.526Z,99641.19
2022-12-14T10:28:09.996Z,99639.22
2022-12-14T10:30:32.942Z,99632.34
2022-12-14T10:33:26.540Z,99628.63
2022-12-14T10:36:11.926Z,99629.72
2022-12-14T10:39:02.029Z,99635.25
2022-12-14T10:41:49.847Z,99633.09
2022-12-14T10:45:09.835Z,99627.53
2022-12-14T10:47:49.800Z,99620.97
2022-12-14T10:51:09.523Z,99616.66
2022-12-14T10:54:12.949Z,99619.47
2022-12-14T10:56:44.054Z,99618.22
2022-12-14T10:59:23.560Z,99623.88
2022-12-14T11:01:54.887Z,99621.34
2022-12-14T11:04:36.134Z,99620.34
2022-12-14T11:07:10.868Z,99612.22
2022-12-14T11:09:40.063Z,99617.13
2022-12-14T11:12:28.282Z,99617.28
2022-12-14T11:15:06.454Z,99625.78
2022-12-14T11:17:44.277Z,99620.34
2022-12-14T11:20:30.879Z,99617.03
2022-12-14T11:23:18.446Z,99599.63
2022-12-14T11:25:51.428Z,99609.25
2022-12-14T11:28:41.326Z,99610.31
2022-12-14T11:31:21.014Z,99601.44
2022-12-14T11:33:52.997Z,99602.66
2022-12-14T11:36:36.275Z,99595.59
2022-12-14T11:39:21.987Z,99604.09
2022-12-14T11:58:54.722Z,99575.72
2022-12-14T12:01:27.118Z,99569.91
2022-12-14T12:03:59.178Z,99582.34
2022-12-14T12:06:30.238Z,99570.78
2022-12-14T12:09:02.142Z,99562.47
2022-12-14T12:11:34.699Z,99572.47
2022-12-14T12:14:29.280Z,99566.03
2022-12-14T12:16:56.518Z,99569.63
2022-12-14T12:19:38.111Z,99569.34
2022-12-14T12:22:12.095Z,99568.16
2022-12-14T12:25:24.356Z,99573.13
2022-12-14T12:28:07.228Z,99569.38
2022-12-14T12:30:49.684Z,99561.19
2022-12-14T12:33:50.345Z,99555.81
2022-12-14T12:36:24.395Z,99541.84
2022-12-14T12:39:12.741Z,99551.38
2022-12-14T12:42:24.535Z,99557.59
2022-12-14T12:45:05.445Z,99547.03
2022-12-14T12:47:47.845Z,99547.88
2022-12-14T12:50:26.829Z,99539.97
2022-12-14T12:53:04.829Z,99544.88
2022-12-14T12:55:51.649Z,99549.41
2022-12-14T12:58:32.740Z,99540.16
2022-12-14T13:01:22.904Z,99541.38
2022-12-14T13:03:58.577Z,99542.13
2022-12-14T13:06:41.236Z,99540.53
2022-12-14T13:09:42.023Z,99539.53
2022-12-14T13:12:49.287Z,99543.28
2022-12-14T13:15:34.713Z,99539.63
2022-12-14T13:18:59.479Z,99543.19
2022-12-14T13:21:43.933Z,99540.53
2022-12-14T13:24:23.194Z,99541.78
2022-12-14T13:27:17.889Z,99543.84
2022-12-14T13:30:15.226Z,99541.94
2022-12-14T13:33:50.872Z,99538.94
2022-12-14T13:36:36.884Z,99533.69
2022-12-14T13:39:33.737Z,99531.31
2022-12-14T13:43:06.514Z,99515.94
2022-12-14T13:45:43.816Z,99530.53
2022-12-14T13:48:37.461Z,99532.09
2022-12-14T13:51:19.016Z,99520.44
2022-12-14T13:53:55.002Z,99523.50
2022-12-14T13:56:49.094Z,99525.91
2022-12-14T13:59:47.291Z,99518.09
2022-12-14T14:02:34.716Z,99530.13
2022-12-14T14:05:37.239Z,99514.69
2022-12-14T14:08:43.313Z,99514.88
2022-12-14T14:11:38.349Z,99516.78
2022-12-14T14:15:09.528Z,99520.84
2022-12-14T14:17:44.091Z,99517.72
2022-12-14T14:21:09.536Z,99522.22
2022-12-14T14:23:38.149Z,99515.88
2022-12-14T14:26:28.029Z,99520.75
2022-12-14T14:29:26.799Z,99516.78
2022-12-14T14:33:43.732Z,99511.28
2022-12-14T14:36:09.748Z,99515.84
2022-12-14T14:38:38.312Z,99521.28
2022-12-14T14:41:27.929Z,99521.28
2022-12-14T14:44:05.936Z,99521.97
2022-12-14T14:46:50.631Z,99524.34
2022-12-14T14:49:54.415Z,99523.38
2022-12-14T14:52:56.486Z,99516.31
2022-12-14T14:58:39.256Z,99522.34
2022-12-14T15:01:09.955Z,99525.44
2022-12-14T15:04:23.513Z,99512.72
2022-12-14T15:07:02.666Z,99527.63
2022-12-14T15:09:59.687Z,99516.88
2022-12-14T15:12:48.231Z,99517.66
2022-12-14T15:15:26.958Z,99524.66
2022-12-14T15:17:55.017Z,99522.81
2022-12-14T15:20:29.998Z,99529.97
2022-12-14T15:22:57.511Z,99516.69
2022-12-14T15:25:31.957Z,99530.75
2022-12-14T15:28:10.398Z,99525.59
2022-12-14T15:30:41.996Z,99530.56
2022-12-14T15:33:36.292Z,99531.16
2022-12-14T15:36:18.961Z,99518.19
2022-12-14T15:38:57.643Z,99520.81
2022-12-14T15:41:58.366Z,99525.56
2022-12-14T15:44:30.743Z,99517.56
2022-12-14T15:47:00.572Z,99516.25
2022-12-14T15:49:30.378Z,99519.34
2022-12-14T15:51:59.183Z,99516.41
2022-12-14T15:54:29.382Z,99520.13
2022-12-14T15:57:00.103Z,99508.66
2022-12-14T15:59:36.803Z,99522.19
2022-12-14T16:02:43.028Z,99517.34
2022-12-14T16:05:34.558Z,99504.03
2022-12-14T16:08:03.337Z,99507.53
2022-12-14T16:10:40.406Z,99491.69
2022-12-14T16:13:25.017Z,99493.31
2022-12-14T16:15:55.695Z,99489.38
2022-12-14T16:18:24.980Z,99487.50
2022-12-14T16:21:01.824Z,99482.50
2022-12-14T16:23:41.783Z,99486.63
2022-12-14T16:26:14.896Z,99494.66
2022-12-14T16:28:48.074Z,99484.72
2022-12-14T16:31:23.787Z,99489.91
2022-12-14T16:34:14.379Z,99489.78
2022-12-14T16:37:31.184Z,99485.31
2022-12-14T16:39:54.159Z,99480.69
2022-12-14T16:42:27.997Z,99489.41
2022-12-14T16:44:54.956Z,99484.72
2022-12-14T16:47:28.718Z,99489.38
2022-12-14T16:50:00.100Z,99502.22
2022-12-14T16:52:37.153Z,99502.22
2022-12-14T16:55:26.347Z,99504.91
2022-12-14T16:57:58.702Z,99507.53
2022-12-14T17:00:29.845Z,99505.97
2022-12-14T18:24:39.786Z,99512.41
2022-12-14T20:46:07.396Z,99466.69
2022-12-14T20:48:37.348Z,99461.59
2022-12-14T21:26:59.520Z,99489.16
2022-12-14T21:29:28.226Z,99495.97
2022-12-14T21:31:56.016Z,99511.25
2022-12-14T21:34:24.044Z,99509.97
2022-12-14T21:36:53.829Z,99502.84
2022-12-14T21:39:20.777Z,99505.81
2022-12-14T21:42:12.013Z,99508.91
2022-12-14T21:44:52.761Z,99525.59
2022-12-14T21:47:29.864Z,99518.91
2022-12-14T21:49:57.336Z,99514.88
2022-12-14T21:52:28.008Z,99516.13
2022-12-14T21:58:54.176Z,99512.06
2022-12-14T22:01:21.406Z,99510.22
2022-12-14T22:03:51.940Z,99523.28
2022-12-14T22:06:18.577Z,99530.38
2022-12-14T22:08:53.862Z,99522.81
2022-12-14T22:11:21.213Z,99524.28
2022-12-14T22:13:47.959Z,99525.38
2022-12-14T22:16:14.882Z,99519.97
2022-12-14T22:18:41.756Z,99533.25
2022-12-14T22:21:08.583Z,99514.53
2022-12-14T22:23:41.312Z,99529.31
2022-12-14T22:26:12.133Z,99527.22
2022-12-14T22:28:54.227Z,99516.53
2022-12-14T22:31:21.892Z,99523.00
2022-12-14T22:33:58.438Z,99528.34
2022-12-14T22:36:26.336Z,99521.03
2022-12-14T22:38:58.307Z,99534.38
2022-12-14T22:41:26.309Z,99536.16
2022-12-14T22:44:02.196Z,99543.59
2022-12-14T22:46:28.995Z,99529.56
2022-12-14T22:48:55.888Z,99520.34
2022-12-14T22:51:24.427Z,99528.78
2022-12-14T22:53:52.395Z,99516.75
2022-12-14T22:56:44.131Z,99523.31
2022-12-14T22:59:36.796Z,99530.41
2022-12-14T23:02:07.821Z,99535.22
2022-12-14T23:04:37.953Z,99519.63
2022-12-14T23:07:06.023Z,99522.94
2022-12-14T23:09:51.761Z,99516.31
2022-12-14T23:12:37.282Z,99536.06
2022-12-14T23:15:23.764Z,99544.88
2022-12-14T23:18:12.901Z,99534.16
2022-12-14T23:21:01.607Z,99535.00
2022-12-14T23:23:47.227Z,99533.38
2022-12-14T23:26:33.019Z,99524.66
2022-12-14T23:29:18.408Z,99527.28
2022-12-14T23:32:03.748Z,99529.91
2022-12-14T23:34:49.128Z,99524.50
2022-12-14T23:37:37.481Z,99518.41
2022-12-14T23:40:23.960Z,99514.72
2022-12-14T23:43:09.258Z,99498.16
2022-12-14T23:45:54.767Z,99498.47
2022-12-14T23:48:40.159Z,99485.97
2022-12-14T23:51:25.497Z,99493.31
2022-12-14T23:54:11.934Z,99478.13
2022-12-14T23:56:59.603Z,99468.41
2022-12-14T23:59:49.696Z,99467.53
